Terminal Aerodrome Forecast
Issued by NWS

Home | Current Version | Previous Version | Graphics & Text | Print | Product List | Glossary On
Versions: 1 2 3 4 5 6 7 8 9 10 11 12 13
000
FTUS45 KGGW 191700
TAFSDY
TAF
KSDY 191735Z 1918/2018 29010KT P6SM OVC022
     FM200300 VRB06KT P6SM BKN120
     FM201200 VRB03KT 3SM BR SCT110
     FM201700 00000KT 3SM BR SCT004
      AMD LTD TO CLD VIS AND WIND=

USA.gov is the U.S. government's official web portal to all federal, state and local government web resources and services.